createdAt,value
2022-08-31T00:00:44.811Z,65.39
2022-08-31T00:01:44.862Z,64.69
2022-08-31T00:02:44.791Z,64.18
2022-08-31T00:03:44.794Z,64.09
2022-08-31T00:04:44.785Z,64.69
2022-08-31T00:05:44.763Z,64.78
2022-08-31T00:06:44.733Z,64.89
2022-08-31T00:07:44.744Z,65.19
2022-08-31T00:08:44.735Z,64.69
2022-08-31T00:09:44.714Z,64.09
2022-08-31T00:10:45.060Z,64.18
2022-08-31T00:11:44.684Z,63.98
2022-08-31T00:12:44.674Z,64.28
2022-08-31T00:13:44.685Z,63.89
2022-08-31T00:14:44.655Z,63.89
2022-08-31T00:15:44.651Z,64.09
2022-08-31T00:16:44.731Z,64.18
2022-08-31T00:17:44.625Z,63.78
2022-08-31T00:18:44.620Z,64.09
2022-08-31T00:19:44.601Z,64.72
2022-08-31T00:20:44.590Z,64.72
2022-08-31T00:21:44.918Z,64.51
2022-08-31T00:22:44.568Z,64.72
2022-08-31T00:23:44.570Z,65.31
2022-08-31T00:24:44.539Z,65.62
2022-08-31T00:25:44.531Z,65.82
2022-08-31T00:26:44.521Z,65.72
2022-08-31T00:27:44.509Z,65.72
2022-08-31T00:28:44.520Z,66.15
2022-08-31T00:29:44.491Z,66.55
2022-08-31T00:30:44.470Z,67.25
2022-08-31T00:31:44.547Z,67.65
2022-08-31T00:32:44.451Z,67.55
2022-08-31T00:33:44.452Z,67.96
2022-08-31T00:34:44.432Z,68.65
2022-08-31T00:35:44.422Z,68.59
2022-08-31T00:36:44.410Z,69.49
2022-08-31T00:37:44.402Z,70.29
2022-08-31T00:38:44.401Z,70.69
2022-08-31T00:39:44.381Z,71.30
2022-08-31T00:40:45.319Z,72.40
2022-08-31T00:41:44.354Z,73.84
2022-08-31T00:42:44.336Z,74.44
2022-08-31T00:43:44.354Z,74.84
2022-08-31T00:44:44.324Z,75.84
2022-08-31T00:45:44.401Z,76.68
2022-08-31T00:46:44.306Z,77.28
2022-08-31T00:47:44.286Z,78.12
2022-08-31T00:48:44.277Z,78.63
2022-08-31T00:49:44.268Z,78.27
2022-08-31T00:50:44.249Z,78.16
2022-08-31T00:51:44.237Z,79.00
2022-08-31T00:52:44.227Z,80.01
2022-08-31T00:53:44.235Z,80.75
2022-08-31T00:54:44.209Z,80.65
2022-08-31T00:55:44.198Z,81.26
2022-08-31T00:56:44.188Z,81.79
2022-08-31T00:57:44.179Z,81.99
2022-08-31T00:58:44.176Z,82.64
2022-08-31T00:59:44.163Z,83.25
2022-08-31T01:00:44.175Z,83.84
2022-08-31T01:01:44.196Z,83.75
2022-08-31T01:02:44.120Z,84.05
2022-08-31T01:03:44.124Z,84.49
2022-08-31T01:04:44.102Z,84.59
2022-08-31T01:05:44.090Z,84.89
2022-08-31T01:06:44.072Z,85.30
2022-08-31T01:07:44.079Z,85.40
2022-08-31T01:08:44.071Z,85.54
2022-08-31T01:09:45.146Z,85.84
2022-08-31T01:10:45.046Z,85.94
2022-08-31T01:11:44.025Z,86.04
2022-08-31T01:12:44.007Z,86.65
2022-08-31T01:13:44.020Z,87.49
2022-08-31T01:14:43.983Z,88.10
2022-08-31T01:15:43.996Z,88.60
2022-08-31T01:16:44.004Z,89.15
2022-08-31T01:17:43.973Z,89.55
2022-08-31T01:18:43.955Z,89.65
2022-08-31T01:19:43.944Z,90.16
2022-08-31T01:20:45.833Z,90.66
2022-08-31T01:21:44.916Z,91.06
2022-08-31T01:22:43.947Z,91.41
2022-08-31T01:23:43.887Z,91.82
2022-08-31T01:24:43.916Z,91.82
2022-08-31T01:25:43.865Z,91.91
2022-08-31T01:26:43.904Z,91.82
2022-08-31T01:27:44.856Z,91.82
2022-08-31T01:28:43.847Z,91.96
2022-08-31T01:29:43.828Z,92.16
2022-08-31T01:30:43.837Z,92.26
2022-08-31T01:31:43.854Z,92.57
2022-08-31T01:32:43.799Z,92.66
2022-08-31T01:33:43.799Z,92.66
2022-08-31T01:34:43.788Z,92.77
2022-08-31T01:35:43.759Z,92.77
2022-08-31T01:36:43.751Z,92.86
2022-08-31T01:37:43.742Z,92.81
2022-08-31T01:38:43.751Z,92.81
2022-08-31T01:39:43.711Z,92.91
2022-08-31T01:40:43.772Z,93.21
2022-08-31T01:41:43.693Z,93.32
2022-08-31T01:42:43.696Z,93.21
2022-08-31T01:43:43.683Z,93.21
2022-08-31T01:44:43.661Z,93.41
2022-08-31T01:45:43.671Z,93.72
2022-08-31T01:46:43.715Z,93.82
2022-08-31T01:47:43.633Z,93.92
2022-08-31T01:48:43.630Z,94.02
2022-08-31T01:49:43.608Z,94.43
2022-08-31T01:50:43.603Z,94.43
2022-08-31T01:51:43.583Z,94.63
2022-08-31T01:52:43.575Z,94.73
2022-08-31T01:53:48.349Z,94.83
2022-08-31T01:54:44.556Z,94.83
2022-08-31T01:55:43.564Z,94.87
2022-08-31T01:56:43.532Z,94.87
2022-08-31T01:57:43.568Z,94.98
2022-08-31T01:58:45.098Z,95.07
2022-08-31T01:59:43.496Z,95.43
2022-08-31T02:00:43.540Z,95.58
2022-08-31T02:01:43.678Z,95.78
2022-08-31T02:02:43.504Z,95.74
2022-08-31T02:03:43.465Z,95.89
2022-08-31T02:04:43.439Z,95.94
2022-08-31T02:05:43.447Z,96.09
2022-08-31T02:06:43.418Z,96.14
2022-08-31T02:07:43.408Z,96.34
2022-08-31T02:08:43.410Z,96.45
2022-08-31T02:09:43.387Z,96.55
2022-08-31T02:10:43.409Z,96.55
2022-08-31T02:11:43.381Z,96.65
2022-08-31T02:12:43.383Z,96.75
2022-08-31T02:13:43.369Z,96.75
2022-08-31T02:14:43.329Z,96.75
2022-08-31T02:15:43.327Z,96.85
2022-08-31T02:16:43.414Z,96.89
2022-08-31T02:17:43.317Z,97.05
2022-08-31T02:18:43.329Z,97.05
2022-08-31T02:19:43.295Z,97.20
2022-08-31T02:20:43.262Z,97.30
2022-08-31T02:21:43.263Z,97.40
2022-08-31T02:22:43.244Z,97.50
2022-08-31T02:23:43.267Z,97.50
2022-08-31T02:24:43.221Z,97.50
2022-08-31T02:25:43.293Z,97.60
2022-08-31T02:26:43.209Z,97.60
2022-08-31T02:27:43.183Z,97.60
2022-08-31T02:28:43.242Z,97.60
2022-08-31T02:29:43.173Z,97.71
2022-08-31T02:30:43.154Z,97.71
2022-08-31T02:31:43.235Z,97.71
2022-08-31T02:32:43.133Z,97.71
2022-08-31T02:33:43.136Z,97.80
2022-08-31T02:34:43.113Z,97.91
2022-08-31T02:35:43.105Z,97.91
2022-08-31T02:36:43.087Z,98.01
2022-08-31T02:37:43.106Z,98.01
2022-08-31T02:38:43.075Z,98.01
2022-08-31T02:39:43.056Z,98.11
2022-08-31T02:40:43.100Z,98.11
2022-08-31T02:41:43.037Z,98.21
2022-08-31T02:42:52.884Z,98.31
2022-08-31T02:43:44.036Z,98.31
2022-08-31T02:44:43.000Z,98.31
2022-08-31T02:45:42.989Z,98.31
2022-08-31T02:46:43.056Z,98.41
2022-08-31T02:47:42.969Z,98.41
2022-08-31T02:48:42.969Z,98.41
2022-08-31T02:49:42.948Z,98.51
2022-08-31T02:50:42.938Z,98.51
2022-08-31T02:51:42.921Z,98.61
2022-08-31T02:52:42.919Z,98.61
2022-08-31T02:53:42.910Z,98.61
2022-08-31T02:54:42.903Z,98.61
2022-08-31T02:55:42.881Z,98.61
2022-08-31T02:56:42.898Z,98.61
2022-08-31T02:57:42.860Z,98.61
2022-08-31T02:58:42.871Z,98.71
2022-08-31T02:59:42.841Z,98.71
2022-08-31T03:00:42.832Z,98.71
2022-08-31T03:01:42.838Z,98.77
2022-08-31T03:02:42.842Z,98.77
2022-08-31T03:03:43.932Z,98.77
2022-08-31T03:04:42.790Z,98.92
2022-08-31T03:05:42.783Z,98.87
2022-08-31T03:06:42.771Z,98.87
2022-08-31T03:07:42.754Z,98.87
2022-08-31T03:08:42.765Z,98.87
2022-08-31T03:09:42.736Z,98.87
2022-08-31T03:10:42.732Z,98.87
2022-08-31T03:11:42.713Z,98.92
2022-08-31T03:12:42.696Z,98.82
2022-08-31T03:13:42.696Z,98.82
2022-08-31T03:14:42.686Z,98.82
2022-08-31T03:15:42.696Z,98.82
2022-08-31T03:16:42.661Z,98.82
2022-08-31T03:17:42.647Z,98.82
2022-08-31T03:18:42.707Z,98.82
2022-08-31T03:19:42.640Z,98.82
2022-08-31T03:20:42.623Z,98.82
2022-08-31T03:21:42.597Z,98.82
2022-08-31T03:22:45.534Z,98.82
2022-08-31T03:23:42.589Z,98.82
2022-08-31T03:24:42.568Z,98.82
2022-08-31T03:25:42.558Z,98.82
2022-08-31T03:26:42.550Z,98.82
2022-08-31T03:27:42.529Z,98.82
2022-08-31T03:28:42.554Z,98.82
2022-08-31T03:29:42.510Z,98.82
2022-08-31T03:30:42.541Z,98.82
2022-08-31T03:31:42.491Z,98.82
2022-08-31T03:32:42.490Z,98.82
2022-08-31T03:33:42.480Z,98.82
2022-08-31T03:34:42.470Z,98.82
2022-08-31T03:35:42.451Z,98.82
2022-08-31T03:36:42.442Z,98.82
2022-08-31T03:37:42.422Z,98.82
2022-08-31T03:38:42.443Z,98.82
2022-08-31T03:39:42.402Z,98.82
2022-08-31T03:40:42.444Z,98.82
2022-08-31T03:41:42.393Z,98.82
2022-08-31T03:42:42.373Z,98.82
2022-08-31T03:43:42.374Z,98.82
2022-08-31T03:44:42.365Z,98.82
2022-08-31T03:45:42.348Z,98.82
2022-08-31T03:46:42.389Z,98.82
2022-08-31T03:47:44.758Z,98.82
2022-08-31T03:48:42.323Z,98.71
2022-08-31T03:49:42.314Z,98.71
2022-08-31T03:50:42.317Z,98.71
2022-08-31T03:51:42.279Z,98.71
2022-08-31T03:52:42.275Z,98.71
2022-08-31T03:53:42.276Z,98.61
2022-08-31T03:54:42.249Z,98.61
2022-08-31T03:55:42.237Z,98.61
2022-08-31T03:56:42.227Z,98.51
2022-08-31T03:57:42.221Z,98.51
2022-08-31T03:58:42.218Z,98.51
2022-08-31T03:59:42.268Z,98.41
2022-08-31T04:00:42.187Z,98.41
2022-08-31T04:01:42.250Z,98.41
2022-08-31T04:02:42.191Z,98.31
2022-08-31T04:03:42.157Z,98.31
2022-08-31T04:04:42.151Z,98.41
2022-08-31T04:05:42.130Z,98.41
2022-08-31T04:06:42.121Z,98.41
2022-08-31T04:07:43.106Z,98.41
2022-08-31T04:08:42.111Z,98.41
2022-08-31T04:09:42.080Z,98.41
2022-08-31T04:10:42.082Z,98.41
2022-08-31T04:11:44.390Z,98.41
2022-08-31T04:12:42.090Z,98.41
2022-08-31T04:13:42.065Z,98.41
2022-08-31T04:14:42.035Z,98.51
2022-08-31T04:15:42.065Z,98.51
2022-08-31T04:16:42.012Z,98.51
2022-08-31T04:17:42.093Z,98.61
2022-08-31T04:18:42.002Z,98.61
2022-08-31T04:19:41.975Z,98.61
2022-08-31T04:20:41.976Z,98.61
2022-08-31T04:21:44.161Z,98.61
2022-08-31T04:22:41.952Z,98.61
2022-08-31T04:23:41.954Z,98.61
2022-08-31T04:24:41.924Z,98.61
2022-08-31T04:25:42.075Z,98.71
2022-08-31T04:26:41.907Z,98.71
2022-08-31T04:27:41.887Z,98.71
2022-08-31T04:28:41.895Z,98.71
2022-08-31T04:29:41.877Z,98.71
2022-08-31T04:30:41.923Z,98.71
2022-08-31T04:31:41.844Z,98.71
2022-08-31T04:32:41.848Z,98.71
2022-08-31T04:33:42.005Z,98.71
2022-08-31T04:34:41.826Z,98.71
2022-08-31T04:35:41.809Z,98.71
2022-08-31T04:36:41.797Z,98.71
2022-08-31T04:37:46.335Z,98.71
2022-08-31T04:38:42.778Z,98.76
2022-08-31T04:39:49.528Z,98.71
2022-08-31T04:40:42.798Z,98.71
2022-08-31T04:41:41.739Z,98.76
2022-08-31T04:42:41.739Z,98.76
2022-08-31T04:43:41.720Z,98.76
2022-08-31T04:44:41.719Z,98.76
2022-08-31T04:45:41.717Z,98.76
2022-08-31T04:46:41.699Z,98.76
2022-08-31T04:47:41.691Z,98.76
2022-08-31T04:48:41.663Z,98.76
2022-08-31T04:49:41.663Z,98.76
2022-08-31T04:50:42.975Z,98.86
2022-08-31T04:51:41.633Z,98.86
2022-08-31T04:52:41.672Z,98.86
2022-08-31T04:53:41.672Z,98.86
2022-08-31T04:54:41.603Z,98.86
2022-08-31T04:55:41.623Z,98.96
2022-08-31T04:56:41.603Z,98.96
2022-08-31T04:57:41.623Z,98.96
2022-08-31T04:58:41.554Z,98.96
2022-08-31T04:59:41.545Z,99.07
2022-08-31T05:00:41.655Z,98.96
2022-08-31T05:01:42.693Z,98.96
2022-08-31T05:02:41.590Z,98.96
2022-08-31T05:03:41.533Z,98.96
2022-08-31T05:04:41.487Z,99.07
2022-08-31T05:05:41.495Z,99.07
2022-08-31T05:06:41.467Z,99.07
2022-08-31T05:07:41.477Z,99.07
2022-08-31T05:08:41.458Z,99.16
2022-08-31T05:09:41.445Z,99.16
2022-08-31T05:10:41.426Z,99.16
2022-08-31T05:11:41.421Z,99.16
2022-08-31T05:12:41.418Z,99.27
2022-08-31T05:13:41.461Z,99.27
2022-08-31T05:14:41.388Z,99.27
2022-08-31T05:15:41.628Z,99.37
2022-08-31T05:16:41.461Z,99.37
2022-08-31T05:17:41.371Z,99.32
2022-08-31T05:18:41.398Z,99.42
2022-08-31T05:19:41.515Z,99.52
2022-08-31T05:20:42.801Z,99.52
2022-08-31T05:21:41.421Z,99.52
2022-08-31T05:22:41.310Z,99.52
2022-08-31T05:23:41.342Z,99.62
2022-08-31T05:24:41.347Z,99.62
2022-08-31T05:25:41.311Z,99.62
2022-08-31T05:26:42.255Z,99.62
2022-08-31T05:27:41.333Z,99.62
2022-08-31T05:28:41.223Z,99.62
2022-08-31T05:29:41.273Z,99.62
2022-08-31T05:30:41.229Z,99.62
2022-08-31T05:31:41.325Z,99.62
2022-08-31T05:32:41.429Z,99.62
2022-08-31T05:33:41.299Z,99.62
2022-08-31T05:34:41.237Z,99.62
2022-08-31T05:35:41.212Z,99.62
2022-08-31T05:36:41.172Z,99.62
2022-08-31T05:37:41.204Z,99.62
2022-08-31T05:38:41.115Z,99.73
2022-08-31T05:39:41.109Z,99.73
2022-08-31T05:40:41.171Z,99.73
2022-08-31T05:41:41.146Z,99.73
2022-08-31T05:42:41.129Z,99.73
2022-08-31T05:43:41.132Z,99.73
2022-08-31T05:44:41.047Z,99.73
2022-08-31T05:45:41.044Z,99.73
2022-08-31T05:46:42.135Z,99.83
2022-08-31T05:47:41.041Z,99.83
2022-08-31T05:48:40.998Z,99.83
2022-08-31T05:49:41.353Z,99.83
2022-08-31T05:50:41.095Z,99.83
2022-08-31T05:51:41.040Z,99.83
2022-08-31T05:52:40.978Z,99.83
2022-08-31T05:53:41.009Z,99.88
2022-08-31T05:54:40.943Z,99.88
2022-08-31T05:55:40.938Z,99.88
2022-08-31T05:56:40.919Z,99.98
2022-08-31T05:57:40.961Z,99.98
2022-08-31T05:58:41.290Z,99.98
2022-08-31T05:59:40.932Z,99.98
2022-08-31T06:00:40.920Z,99.98
2022-08-31T06:01:41.240Z,99.98
2022-08-31T06:02:41.063Z,99.98
2022-08-31T06:03:40.832Z,99.99
2022-08-31T06:04:40.847Z,99.99
2022-08-31T06:05:40.893Z,99.99
2022-08-31T06:06:41.224Z,99.99
2022-08-31T06:07:40.824Z,99.99
2022-08-31T06:08:40.787Z,99.99
2022-08-31T06:09:40.924Z,99.99
2022-08-31T06:10:40.761Z,99.99
2022-08-31T06:11:40.755Z,99.99
2022-08-31T06:12:40.833Z,99.99
2022-08-31T06:13:40.726Z,99.99
2022-08-31T06:14:41.772Z,99.99
2022-08-31T06:15:42.329Z,99.99
2022-08-31T06:16:40.755Z,99.99
2022-08-31T06:17:40.731Z,99.99
2022-08-31T06:18:40.706Z,99.99
2022-08-31T06:19:40.797Z,99.99
2022-08-31T06:20:40.649Z,99.99
2022-08-31T06:21:40.692Z,99.99
2022-08-31T06:22:41.628Z,99.99
2022-08-31T06:23:41.797Z,99.99
2022-08-31T06:24:40.597Z,99.99
2022-08-31T06:25:40.588Z,99.99
2022-08-31T06:26:40.588Z,99.99
2022-08-31T06:27:40.584Z,99.99
2022-08-31T06:28:40.561Z,99.99
2022-08-31T06:29:40.550Z,99.99
2022-08-31T06:30:54.448Z,99.99
2022-08-31T06:31:42.350Z,99.99
2022-08-31T06:32:40.531Z,99.99
2022-08-31T06:33:40.505Z,99.99
2022-08-31T06:34:40.485Z,99.99
2022-08-31T06:35:40.489Z,99.99
2022-08-31T06:36:40.472Z,99.94
2022-08-31T06:37:40.474Z,99.84
2022-08-31T06:38:40.476Z,99.94
2022-08-31T06:39:40.443Z,99.94
2022-08-31T06:40:40.482Z,99.94
2022-08-31T06:41:40.421Z,99.94
2022-08-31T06:42:40.413Z,99.89
2022-08-31T06:43:40.392Z,99.99
2022-08-31T06:44:40.375Z,99.79
2022-08-31T06:45:40.364Z,99.79
2022-08-31T06:46:40.423Z,99.85
2022-08-31T06:47:40.387Z,99.85
2022-08-31T06:48:40.336Z,99.65
2022-08-31T06:49:40.328Z,99.44
2022-08-31T06:50:40.314Z,99.34
2022-08-31T06:51:40.329Z,99.10
2022-08-31T06:52:40.306Z,98.90
2022-08-31T06:53:40.300Z,98.59
2022-08-31T06:54:40.265Z,98.39
2022-08-31T06:55:40.269Z,98.09
2022-08-31T06:56:40.252Z,97.58
2022-08-31T06:57:40.256Z,96.88
2022-08-31T06:58:40.230Z,96.28
2022-08-31T06:59:40.247Z,95.67
2022-08-31T07:00:40.200Z,95.17
2022-08-31T07:01:40.282Z,94.92
2022-08-31T07:02:40.275Z,94.62
2022-08-31T07:03:40.181Z,94.42
2022-08-31T07:04:42.990Z,94.01
2022-08-31T07:05:40.220Z,93.81
2022-08-31T07:06:40.140Z,93.61
2022-08-31T07:07:40.140Z,93.41
2022-08-31T07:08:40.138Z,93.21
2022-08-31T07:09:40.111Z,93.11
2022-08-31T07:10:40.101Z,93.11
2022-08-31T07:11:44.237Z,93.07
2022-08-31T07:12:40.095Z,93.07
2022-08-31T07:13:40.067Z,93.27
2022-08-31T07:14:40.055Z,93.16
2022-08-31T07:15:40.088Z,92.56
2022-08-31T07:16:40.146Z,92.26
2022-08-31T07:17:40.048Z,91.86
2022-08-31T07:18:40.048Z,91.86
2022-08-31T07:19:44.725Z,91.75
2022-08-31T07:20:41.368Z,91.75
2022-08-31T07:22:00.977Z,91.86
2022-08-31T07:22:39.978Z,91.96
2022-08-31T07:23:39.967Z,91.91
2022-08-31T07:24:39.935Z,91.91
2022-08-31T07:25:39.920Z,92.02
2022-08-31T07:26:39.999Z,92.22
2022-08-31T07:27:39.907Z,92.32
2022-08-31T07:28:39.895Z,92.32
2022-08-31T07:29:39.907Z,92.02
2022-08-31T07:30:39.964Z,91.91
2022-08-31T07:31:39.928Z,91.77
2022-08-31T07:32:39.898Z,91.77
2022-08-31T07:33:39.829Z,91.67
2022-08-31T07:34:39.853Z,91.77
2022-08-31T07:35:39.847Z,91.87
2022-08-31T07:36:39.811Z,91.87
2022-08-31T07:37:39.812Z,91.87
2022-08-31T07:38:39.783Z,91.77
2022-08-31T07:39:39.774Z,91.57
2022-08-31T07:40:41.296Z,91.47
2022-08-31T07:41:39.803Z,91.37
2022-08-31T07:42:39.743Z,91.47
2022-08-31T07:43:39.727Z,91.47
2022-08-31T07:44:39.738Z,91.57
2022-08-31T07:45:39.763Z,91.77
2022-08-31T07:46:39.714Z,91.97
2022-08-31T07:47:39.685Z,92.17
2022-08-31T07:48:39.675Z,92.37
2022-08-31T07:49:39.729Z,92.47
2022-08-31T07:50:39.647Z,92.68
2022-08-31T07:51:39.645Z,92.68
2022-08-31T07:52:39.645Z,92.57
2022-08-31T07:53:39.624Z,92.77
2022-08-31T07:54:39.617Z,92.77
2022-08-31T07:55:39.597Z,92.77
2022-08-31T07:56:39.595Z,92.77
2022-08-31T07:57:39.627Z,92.68
2022-08-31T07:58:39.678Z,92.57
2022-08-31T07:59:39.649Z,92.57
2022-08-31T08:00:39.555Z,92.57
2022-08-31T08:01:39.575Z,92.68
2022-08-31T08:02:39.530Z,92.68
2022-08-31T08:03:39.508Z,92.68
2022-08-31T08:04:39.500Z,92.77
2022-08-31T08:05:39.479Z,92.88
2022-08-31T08:06:39.492Z,92.97
2022-08-31T08:07:39.460Z,93.23
2022-08-31T08:08:39.449Z,93.28
2022-08-31T08:09:39.431Z,93.43
2022-08-31T08:10:39.433Z,93.43
2022-08-31T08:11:39.442Z,93.54
2022-08-31T08:12:39.401Z,93.63
2022-08-31T08:13:39.432Z,93.63
2022-08-31T08:14:39.443Z,93.74
2022-08-31T08:15:40.609Z,93.84
2022-08-31T08:16:39.498Z,93.63
2022-08-31T08:17:39.345Z,93.54
2022-08-31T08:18:39.324Z,93.54
2022-08-31T08:19:39.334Z,93.54
2022-08-31T08:20:39.409Z,93.33
2022-08-31T08:21:39.316Z,93.23
2022-08-31T08:22:51.474Z,93.13
2022-08-31T08:23:40.300Z,93.13
2022-08-31T08:24:39.267Z,93.13
2022-08-31T08:25:39.276Z,93.13
2022-08-31T08:26:39.257Z,93.09
2022-08-31T08:27:39.238Z,93.19
2022-08-31T08:28:40.755Z,93.39
2022-08-31T08:29:39.219Z,93.19
2022-08-31T08:30:39.198Z,92.58
2022-08-31T08:31:39.294Z,92.38
2022-08-31T08:32:39.190Z,92.49
2022-08-31T08:33:39.189Z,92.49
2022-08-31T08:34:39.159Z,92.44
2022-08-31T08:35:39.152Z,92.44
2022-08-31T08:36:39.152Z,92.04
2022-08-31T08:37:57.314Z,91.24
2022-08-31T08:38:40.162Z,89.63
2022-08-31T08:39:39.101Z,90.73
2022-08-31T08:40:39.160Z,91.84
2022-08-31T08:41:39.113Z,90.88
2022-08-31T08:42:39.067Z,90.28
2022-08-31T08:43:39.075Z,89.01
2022-08-31T08:44:39.048Z,90.42
2022-08-31T08:45:39.106Z,91.93
2022-08-31T08:46:39.129Z,92.33
2022-08-31T08:47:39.402Z,89.92
2022-08-31T08:48:39.002Z,89.96
2022-08-31T08:49:38.996Z,90.66
2022-08-31T08:50:38.991Z,91.97
2022-08-31T08:51:38.996Z,93.84
2022-08-31T08:52:38.973Z,93.74
2022-08-31T08:53:38.956Z,94.09
2022-08-31T08:54:38.967Z,92.29
2022-08-31T08:55:38.928Z,91.02
2022-08-31T08:56:39.008Z,90.82
2022-08-31T08:57:38.920Z,89.92
2022-08-31T08:58:38.889Z,91.13
2022-08-31T08:59:38.915Z,90.32
2022-08-31T09:00:38.874Z,91.42
2022-08-31T09:01:39.120Z,93.79
2022-08-31T09:02:38.903Z,90.37
2022-08-31T09:03:38.849Z,88.77
2022-08-31T09:04:38.842Z,90.68
2022-08-31T09:05:38.825Z,91.54
2022-08-31T09:06:45.833Z,90.73
2022-08-31T09:07:39.805Z,89.94
2022-08-31T09:08:38.812Z,88.02
2022-08-31T09:09:38.775Z,87.22
2022-08-31T09:10:38.773Z,86.92
2022-08-31T09:11:38.775Z,90.44
2022-08-31T09:12:38.745Z,89.59
2022-08-31T09:13:38.734Z,89.18
2022-08-31T09:14:38.717Z,88.79
2022-08-31T09:15:38.792Z,87.48
2022-08-31T09:16:38.717Z,88.79
2022-08-31T09:17:38.692Z,85.31
2022-08-31T09:18:38.675Z,86.32
2022-08-31T09:19:38.674Z,87.32
2022-08-31T09:20:38.658Z,86.42
2022-08-31T09:21:38.652Z,86.42
2022-08-31T09:22:38.640Z,85.72
2022-08-31T09:23:38.649Z,87.98
2022-08-31T09:24:38.607Z,85.58
2022-08-31T09:25:38.613Z,83.87
2022-08-31T09:26:38.601Z,83.77
2022-08-31T09:27:38.584Z,84.27
2022-08-31T09:28:38.561Z,84.37
2022-08-31T09:29:38.604Z,83.21
2022-08-31T09:30:38.548Z,82.90
2022-08-31T09:31:38.595Z,86.08
2022-08-31T09:32:38.615Z,81.67
2022-08-31T09:33:38.512Z,81.06
2022-08-31T09:34:38.524Z,82.97
2022-08-31T09:35:38.506Z,82.06
2022-08-31T09:36:38.484Z,84.47
2022-08-31T09:37:38.488Z,83.93
2022-08-31T09:38:38.465Z,82.63
2022-08-31T09:39:38.454Z,83.13
2022-08-31T09:40:38.500Z,80.32
2022-08-31T09:41:38.485Z,81.73
2022-08-31T09:42:38.406Z,81.67
2022-08-31T09:43:38.419Z,81.16
2022-08-31T09:44:38.388Z,81.26
2022-08-31T09:45:42.112Z,82.57
2022-08-31T09:46:38.389Z,82.17
2022-08-31T09:47:38.360Z,81.76
2022-08-31T09:48:38.369Z,80.86
2022-08-31T09:49:38.342Z,82.57
2022-08-31T09:50:38.330Z,82.76
2022-08-31T09:51:38.345Z,83.77
2022-08-31T09:52:38.301Z,81.96
2022-08-31T09:53:38.292Z,83.67
2022-08-31T09:54:40.181Z,83.57
2022-08-31T09:55:39.273Z,83.03
2022-08-31T09:56:38.333Z,81.12
2022-08-31T09:57:38.260Z,80.12
2022-08-31T09:58:38.268Z,83.13
2022-08-31T09:59:38.817Z,80.92
2022-08-31T10:00:38.277Z,80.92
2022-08-31T10:01:38.337Z,80.42
2022-08-31T10:02:38.244Z,81.52
2022-08-31T10:03:38.236Z,81.82
2022-08-31T10:04:38.278Z,82.93
2022-08-31T10:05:38.176Z,80.82
2022-08-31T10:06:38.165Z,83.33
2022-08-31T10:07:38.190Z,82.09
2022-08-31T10:08:38.131Z,82.29
2022-08-31T10:09:38.130Z,83.25
2022-08-31T10:10:38.159Z,80.85
2022-08-31T10:11:38.109Z,78.84
2022-08-31T10:12:38.080Z,80.88
2022-08-31T10:13:38.078Z,79.68
2022-08-31T10:14:38.082Z,79.58
2022-08-31T10:15:38.087Z,81.24
2022-08-31T10:16:38.059Z,80.35
2022-08-31T10:17:38.031Z,79.30
2022-08-31T10:18:38.021Z,78.91
2022-08-31T10:19:38.012Z,78.86
2022-08-31T10:20:38.024Z,79.06
2022-08-31T10:21:38.003Z,79.73
2022-08-31T10:22:38.045Z,79.63
2022-08-31T10:23:37.982Z,79.23
2022-08-31T10:24:37.972Z,77.43
2022-08-31T10:25:38.052Z,79.39
2022-08-31T10:26:37.950Z,76.49
2022-08-31T10:27:37.955Z,76.59
2022-08-31T10:28:37.917Z,76.39
2022-08-31T10:29:37.958Z,78.66
2022-08-31T10:30:38.034Z,75.99
2022-08-31T10:31:38.018Z,76.89
2022-08-31T10:32:37.869Z,77.89
2022-08-31T10:33:38.018Z,75.65
2022-08-31T10:34:37.915Z,76.09
2022-08-31T10:35:37.871Z,75.85
2022-08-31T10:36:37.841Z,76.19
2022-08-31T10:37:38.015Z,77.56
2022-08-31T10:38:37.824Z,78.16
2022-08-31T10:39:37.792Z,74.46
2022-08-31T10:40:37.898Z,75.79
2022-08-31T10:41:37.785Z,74.39
2022-08-31T10:42:37.856Z,73.09
2022-08-31T10:43:37.754Z,74.79
2022-08-31T10:44:37.755Z,75.99
2022-08-31T10:45:37.735Z,74.99
2022-08-31T10:46:37.798Z,74.19
2022-08-31T10:47:37.725Z,73.96
2022-08-31T10:48:37.716Z,76.65
2022-08-31T10:49:37.717Z,75.82
2022-08-31T10:50:37.688Z,73.69
2022-08-31T10:51:37.685Z,74.38
2022-08-31T10:52:37.659Z,73.75
2022-08-31T10:53:39.913Z,73.39
2022-08-31T10:54:37.639Z,73.58
2022-08-31T10:55:37.629Z,74.62
2022-08-31T10:56:37.620Z,75.05
2022-08-31T10:57:37.603Z,75.76
2022-08-31T10:58:37.594Z,76.15
2022-08-31T10:59:37.591Z,76.56
2022-08-31T11:00:37.573Z,73.56
2022-08-31T11:01:37.686Z,76.76
2022-08-31T11:02:37.563Z,74.85
2022-08-31T11:03:37.602Z,77.66
2022-08-31T11:04:37.612Z,76.82
2022-08-31T11:05:37.525Z,74.88
2022-08-31T11:06:37.526Z,75.18
2022-08-31T11:07:37.498Z,72.75
2022-08-31T11:08:37.511Z,73.85
2022-08-31T11:09:37.492Z,74.21
2022-08-31T11:10:37.478Z,73.22
2022-08-31T11:11:43.453Z,71.52
2022-08-31T11:12:38.449Z,73.11
2022-08-31T11:13:37.449Z,72.92
2022-08-31T11:14:37.430Z,71.42
2022-08-31T11:15:37.511Z,70.72
2022-08-31T11:16:37.414Z,73.82
2022-08-31T11:17:37.392Z,73.42
2022-08-31T11:18:37.391Z,72.81
2022-08-31T11:19:37.383Z,71.48
2022-08-31T11:20:37.393Z,73.44
2022-08-31T11:21:37.353Z,71.75
2022-08-31T11:22:37.354Z,70.65
2022-08-31T11:23:43.828Z,72.88
2022-08-31T11:24:38.334Z,71.48
2022-08-31T11:25:37.338Z,71.59
2022-08-31T11:26:37.317Z,70.79
2022-08-31T11:27:37.353Z,70.56
2022-08-31T11:28:37.329Z,68.56
2022-08-31T11:29:37.348Z,68.26
2022-08-31T11:30:41.358Z,69.20
2022-08-31T11:31:37.304Z,69.59
2022-08-31T11:32:37.250Z,71.39
2022-08-31T11:33:37.240Z,70.99
2022-08-31T11:34:37.252Z,68.96
2022-08-31T11:35:37.230Z,68.56
2022-08-31T11:36:38.201Z,67.96
2022-08-31T11:37:37.202Z,70.26
2022-08-31T11:38:37.192Z,68.86
2022-08-31T11:39:37.193Z,67.17
2022-08-31T11:40:37.303Z,68.40
2022-08-31T11:41:37.283Z,67.30
2022-08-31T11:42:37.145Z,66.30
2022-08-31T11:43:37.144Z,66.70
2022-08-31T11:44:37.154Z,67.20
2022-08-31T11:45:37.126Z,66.60
2022-08-31T11:46:37.206Z,68.56
2022-08-31T11:47:37.115Z,69.32
2022-08-31T11:48:37.084Z,67.93
2022-08-31T11:49:37.090Z,71.35
2022-08-31T11:50:37.102Z,68.53
2022-08-31T11:51:40.994Z,65.12
2022-08-31T11:52:37.049Z,66.48
2022-08-31T11:53:37.042Z,66.28
2022-08-31T11:54:37.030Z,62.21
2022-08-31T11:55:37.049Z,64.52
2022-08-31T11:56:37.006Z,62.93
2022-08-31T11:57:37.820Z,64.06
2022-08-31T11:58:36.983Z,65.28
2022-08-31T11:59:36.992Z,65.08
2022-08-31T12:00:36.983Z,68.07
2022-08-31T12:01:36.963Z,67.27
2022-08-31T12:02:36.986Z,66.71
2022-08-31T12:03:36.935Z,65.71
2022-08-31T12:04:36.925Z,66.53
2022-08-31T12:05:37.041Z,65.54
2022-08-31T12:06:36.903Z,66.24
2022-08-31T12:07:36.906Z,66.74
2022-08-31T12:08:36.890Z,66.57
2022-08-31T12:09:36.939Z,66.24
2022-08-31T12:10:37.016Z,67.24
2022-08-31T12:11:36.860Z,66.83
2022-08-31T12:12:36.839Z,68.60
2022-08-31T12:13:36.850Z,66.50
2022-08-31T12:14:36.830Z,64.98
2022-08-31T12:15:36.903Z,65.68
2022-08-31T12:16:36.818Z,64.65
2022-08-31T12:17:36.835Z,64.06
2022-08-31T12:18:36.797Z,64.09
2022-08-31T12:19:36.824Z,62.87
2022-08-31T12:20:36.817Z,62.07
2022-08-31T12:21:36.766Z,65.82
2022-08-31T12:22:36.743Z,62.38
2022-08-31T12:23:36.757Z,60.20
2022-08-31T12:24:36.731Z,61.29
2022-08-31T12:25:36.776Z,60.86
2022-08-31T12:26:38.066Z,59.94
2022-08-31T12:27:36.709Z,59.05
2022-08-31T12:28:36.688Z,59.01
2022-08-31T12:29:36.743Z,60.13
2022-08-31T12:30:36.681Z,59.47
2022-08-31T12:31:36.720Z,60.28
2022-08-31T12:32:36.699Z,62.30
2022-08-31T12:33:36.640Z,62.93
2022-08-31T12:34:36.630Z,63.82
2022-08-31T12:35:36.642Z,65.39
2022-08-31T12:36:36.612Z,63.96
2022-08-31T12:37:36.612Z,63.46
2022-08-31T12:38:36.593Z,63.07
2022-08-31T12:39:36.593Z,62.74
2022-08-31T12:40:36.688Z,62.45
2022-08-31T12:41:36.573Z,60.36
2022-08-31T12:42:36.546Z,61.35
2022-08-31T12:43:36.547Z,60.28
2022-08-31T12:44:36.535Z,62.27
2022-08-31T12:45:36.538Z,61.38
2022-08-31T12:46:36.524Z,62.47
2022-08-31T12:47:36.519Z,62.47
2022-08-31T12:48:36.497Z,62.45
2022-08-31T12:49:36.490Z,60.23
2022-08-31T12:50:36.599Z,60.43
2022-08-31T12:51:36.469Z,59.63
2022-08-31T12:52:36.456Z,61.69